createdAt,value
2023-03-15T00:00:38.875Z,3.73
2023-03-15T00:03:25.759Z,3.70
2023-03-15T00:06:02.512Z,3.64
2023-03-15T00:08:36.780Z,3.60
2023-03-15T00:11:10.692Z,3.56
2023-03-15T00:13:45.222Z,3.54
2023-03-15T00:16:18.825Z,3.47
2023-03-15T00:18:52.643Z,3.45
2023-03-15T00:21:29.083Z,3.38
2023-03-15T00:24:03.688Z,3.33
2023-03-15T00:26:37.794Z,3.29
2023-03-15T00:29:11.708Z,3.22
2023-03-15T00:31:44.965Z,3.20
2023-03-15T00:34:19.521Z,3.15
2023-03-15T00:36:54.143Z,3.12
2023-03-15T00:39:28.152Z,3.08
2023-03-15T00:42:01.619Z,3.05
2023-03-15T00:44:35.789Z,3.03
2023-03-15T00:47:09.439Z,2.98
2023-03-15T00:49:43.366Z,2.96
2023-03-15T00:52:17.115Z,2.92
2023-03-15T00:54:56.973Z,2.90
2023-03-15T00:57:30.784Z,2.86
2023-03-15T01:00:06.240Z,2.84
2023-03-15T01:02:41.950Z,2.82
2023-03-15T01:05:16.724Z,2.78
2023-03-15T01:07:53.270Z,2.72
2023-03-15T01:10:27.157Z,2.67
2023-03-15T01:13:01.325Z,2.63
2023-03-15T01:15:35.177Z,2.59
2023-03-15T01:18:09.610Z,2.54
2023-03-15T01:20:47.395Z,2.49
2023-03-15T01:23:21.684Z,2.45
2023-03-15T01:25:55.873Z,2.45
2023-03-15T01:28:30.087Z,2.42
2023-03-15T01:31:04.567Z,2.39
2023-03-15T01:33:38.390Z,2.35
2023-03-15T01:36:15.154Z,2.31
2023-03-15T01:38:49.751Z,2.29
2023-03-15T01:41:27.534Z,2.27
2023-03-15T01:44:01.721Z,2.22
2023-03-15T01:46:36.007Z,2.23
2023-03-15T01:49:18.607Z,2.19
2023-03-15T01:51:57.200Z,2.15
2023-03-15T01:54:35.935Z,2.10
2023-03-15T01:57:14.384Z,2.04
2023-03-15T01:59:53.440Z,2.00
2023-03-15T02:02:27.945Z,1.98
2023-03-15T02:05:07.163Z,1.96
2023-03-15T02:07:50.391Z,1.90
2023-03-15T02:10:30.414Z,1.87
2023-03-15T02:13:05.860Z,1.85
2023-03-15T02:15:39.864Z,1.81
2023-03-15T02:18:13.600Z,1.81
2023-03-15T02:20:54.320Z,1.79
2023-03-15T02:23:28.841Z,1.79
2023-03-15T02:26:15.286Z,1.79
2023-03-15T02:28:50.490Z,1.78
2023-03-15T02:31:26.584Z,1.77
2023-03-15T02:34:00.233Z,1.78
2023-03-15T02:36:34.694Z,1.78
2023-03-15T02:39:19.466Z,1.78
2023-03-15T02:41:57.050Z,1.75
2023-03-15T02:44:33.982Z,1.75
2023-03-15T02:47:10.651Z,1.77
2023-03-15T02:49:49.941Z,1.76
2023-03-15T02:52:26.396Z,1.78
2023-03-15T02:55:02.361Z,1.76
2023-03-15T02:57:36.857Z,1.76
2023-03-15T03:00:16.455Z,1.72
2023-03-15T03:02:51.543Z,1.68
2023-03-15T03:05:25.576Z,1.65
2023-03-15T03:07:59.223Z,1.67
2023-03-15T03:10:33.515Z,1.71
2023-03-15T03:13:07.796Z,1.67
2023-03-15T03:15:45.934Z,1.66
2023-03-15T03:18:21.404Z,1.68
2023-03-15T03:20:57.238Z,1.68
2023-03-15T03:23:31.820Z,1.70
2023-03-15T03:26:17.277Z,1.70
2023-03-15T03:28:54.029Z,1.70
2023-03-15T03:31:29.668Z,1.76
2023-03-15T03:34:04.469Z,1.74
2023-03-15T03:36:40.167Z,1.76
2023-03-15T03:39:16.601Z,1.78
2023-03-15T03:41:50.143Z,1.79
2023-03-15T03:44:25.249Z,1.79
2023-03-15T03:46:58.153Z,1.79
2023-03-15T03:49:32.404Z,1.79
2023-03-15T03:52:07.281Z,1.77
2023-03-15T03:54:42.903Z,1.79
2023-03-15T03:57:17.061Z,1.76
2023-03-15T03:59:51.133Z,1.74
2023-03-15T04:02:24.534Z,1.73
2023-03-15T04:05:06.220Z,1.70
2023-03-15T04:07:40.128Z,1.68
2023-03-15T04:10:16.158Z,1.69
2023-03-15T04:12:54.585Z,1.66
2023-03-15T04:15:29.735Z,1.65
2023-03-15T04:18:05.988Z,1.64
2023-03-15T04:20:48.655Z,1.65
2023-03-15T04:23:25.890Z,1.65
2023-03-15T04:26:15.011Z,1.63
2023-03-15T04:29:01.356Z,1.61
2023-03-15T04:31:43.493Z,1.61
2023-03-15T04:34:51.700Z,1.59
2023-03-15T04:37:48.712Z,1.65
2023-03-15T04:40:43.166Z,1.58
2023-03-15T04:43:43.828Z,1.55
2023-03-15T04:49:21.895Z,1.51
2023-03-15T04:52:25.468Z,1.46
2023-03-15T04:55:34.693Z,1.42
2023-03-15T04:58:35.515Z,1.40
2023-03-15T05:01:17.145Z,1.43
2023-03-15T05:04:01.760Z,1.40
2023-03-15T05:07:01.196Z,1.39
2023-03-15T05:09:57.852Z,1.39
2023-03-15T05:12:43.945Z,1.39
2023-03-15T05:15:35.177Z,1.38
2023-03-15T05:18:32.513Z,1.39
2023-03-15T05:21:18.402Z,1.41
2023-03-15T05:24:09.477Z,1.41
2023-03-15T05:27:07.786Z,1.42
2023-03-15T05:30:17.106Z,1.44
2023-03-15T05:33:17.562Z,1.45
2023-03-15T05:36:20.365Z,1.49
2023-03-15T05:39:17.521Z,1.53
2023-03-15T05:42:22.412Z,1.59
2023-03-15T05:45:00.383Z,1.65
2023-03-15T05:47:52.761Z,1.73
2023-03-15T05:50:43.429Z,1.81
2023-03-15T05:53:40.775Z,1.88
2023-03-15T05:56:50.665Z,1.97
2023-03-15T05:59:40.355Z,2.03
2023-03-15T06:02:39.959Z,2.10
2023-03-15T06:05:42.059Z,2.18
2023-03-15T06:08:20.169Z,2.25
2023-03-15T06:10:54.765Z,2.31
2023-03-15T06:13:28.949Z,2.35
2023-03-15T06:16:02.647Z,2.43
2023-03-15T06:18:37.253Z,2.48
2023-03-15T06:21:11.220Z,2.54
2023-03-15T06:23:45.398Z,2.60
2023-03-15T06:26:20.124Z,2.68
2023-03-15T06:28:55.112Z,2.75
2023-03-15T06:36:43.147Z,3.03
2023-03-15T06:39:17.643Z,3.10
2023-03-15T06:41:53.726Z,3.19
2023-03-15T06:44:28.112Z,3.28
2023-03-15T06:47:04.473Z,3.38
2023-03-15T07:02:25.178Z,4.02
2023-03-15T07:04:59.371Z,4.10
2023-03-15T07:07:33.788Z,4.19
2023-03-15T07:10:08.773Z,4.30
2023-03-15T07:12:42.285Z,4.38
2023-03-15T07:15:17.670Z,4.54
2023-03-15T07:17:51.129Z,4.65
2023-03-15T07:20:25.472Z,4.79
2023-03-15T07:22:59.328Z,4.92
2023-03-15T07:25:37.605Z,5.04
2023-03-15T07:28:16.367Z,5.16
2023-03-15T07:30:57.969Z,5.30
2023-03-15T07:33:33.557Z,5.44
2023-03-15T07:36:09.804Z,5.56
2023-03-15T07:38:44.262Z,5.72
2023-03-15T07:41:18.262Z,5.86
2023-03-15T07:44:02.268Z,5.97
2023-03-15T07:46:37.006Z,6.06
2023-03-15T07:49:11.311Z,6.16
2023-03-15T07:51:45.318Z,6.29
2023-03-15T07:54:19.943Z,6.37
2023-03-15T07:56:53.542Z,6.46
2023-03-15T07:59:28.163Z,6.55
2023-03-15T08:02:03.102Z,6.64
2023-03-15T08:04:37.245Z,6.73
2023-03-15T08:07:12.036Z,6.77
2023-03-15T08:09:46.658Z,6.80
2023-03-15T08:12:20.894Z,6.83
2023-03-15T08:14:54.140Z,6.92
2023-03-15T08:17:27.540Z,6.94
2023-03-15T08:20:05.976Z,6.97
2023-03-15T08:22:39.626Z,7.03
2023-03-15T08:25:15.884Z,7.09
2023-03-15T08:27:50.450Z,7.17
2023-03-15T08:30:25.190Z,7.25
2023-03-15T08:32:58.712Z,7.30
2023-03-15T08:35:34.661Z,7.37
2023-03-15T08:38:09.608Z,7.45
2023-03-15T08:40:43.243Z,7.53
2023-03-15T08:43:17.381Z,7.63
2023-03-15T08:46:00.787Z,7.74
2023-03-15T08:48:36.451Z,7.83
2023-03-15T08:51:10.260Z,7.92
2023-03-15T08:53:43.925Z,8.01
2023-03-15T08:56:18.155Z,8.06
2023-03-15T08:58:52.157Z,8.11
2023-03-15T09:01:26.288Z,8.18
2023-03-15T09:04:00.377Z,8.26
2023-03-15T09:06:34.722Z,8.33
2023-03-15T09:09:08.838Z,8.41
2023-03-15T09:11:43.349Z,8.48
2023-03-15T09:14:17.997Z,8.58
2023-03-15T09:16:52.680Z,8.64
2023-03-15T09:19:26.805Z,8.73
2023-03-15T09:22:15.925Z,8.85
2023-03-15T09:24:51.745Z,8.99
2023-03-15T09:27:25.842Z,9.09
2023-03-15T09:30:00.112Z,9.21
2023-03-15T09:32:36.793Z,9.32
2023-03-15T09:35:14.797Z,9.44
2023-03-15T09:37:49.290Z,9.56
2023-03-15T09:40:24.874Z,9.65
2023-03-15T09:43:05.659Z,9.72
2023-03-15T09:46:03.278Z,9.80
2023-03-15T09:48:45.638Z,9.86
2023-03-15T09:51:30.700Z,9.91
2023-03-15T09:54:11.469Z,10.06
2023-03-15T09:56:52.030Z,10.20
2023-03-15T09:59:32.888Z,10.32
2023-03-15T10:02:20.332Z,10.44
2023-03-15T10:04:58.991Z,10.53
2023-03-15T10:07:33.121Z,10.64
2023-03-15T10:10:08.944Z,10.77
2023-03-15T10:12:51.940Z,10.89
2023-03-15T10:15:33.904Z,11.02
2023-03-15T10:18:34.521Z,11.09
2023-03-15T10:21:17.985Z,11.17
2023-03-15T10:23:54.984Z,11.19
2023-03-15T10:26:35.050Z,11.23
2023-03-15T10:29:17.386Z,11.28
2023-03-15T10:31:53.002Z,11.30
2023-03-15T10:34:28.296Z,11.33
2023-03-15T10:37:01.964Z,11.37
2023-03-15T10:39:36.166Z,11.41
2023-03-15T10:42:24.051Z,11.45
2023-03-15T10:44:58.553Z,11.55
2023-03-15T10:47:31.561Z,11.65
2023-03-15T10:50:05.587Z,11.71
2023-03-15T10:52:41.940Z,11.76
2023-03-15T10:55:20.218Z,11.83
2023-03-15T10:58:00.046Z,11.87
2023-03-15T11:00:35.865Z,11.95
2023-03-15T11:03:17.756Z,11.98
2023-03-15T11:05:53.654Z,12.04
2023-03-15T11:08:39.780Z,12.08
2023-03-15T11:11:13.834Z,12.13
2023-03-15T11:14:01.132Z,12.17
2023-03-15T11:16:39.281Z,12.22
2023-03-15T11:19:19.962Z,12.25
2023-03-15T11:21:54.742Z,12.29
2023-03-15T11:24:34.647Z,12.33
2023-03-15T11:27:19.151Z,12.37
2023-03-15T11:29:56.418Z,12.41
2023-03-15T11:32:31.900Z,12.45
2023-03-15T11:35:08.342Z,12.50
2023-03-15T11:37:48.355Z,12.52
2023-03-15T11:40:25.104Z,12.56
2023-03-15T11:43:02.458Z,12.61
2023-03-15T11:45:42.087Z,12.65
2023-03-15T11:48:46.190Z,12.71
2023-03-15T11:51:20.185Z,12.72
2023-03-15T11:54:10.613Z,12.76
2023-03-15T11:56:55.767Z,12.81
2023-03-15T11:59:32.852Z,12.86
2023-03-15T12:02:49.954Z,12.89
2023-03-15T12:05:51.073Z,12.94
2023-03-15T12:08:42.012Z,13.00
2023-03-15T12:11:36.892Z,13.03
2023-03-15T12:14:32.947Z,13.13
2023-03-15T12:17:44.686Z,13.20
2023-03-15T12:20:29.577Z,13.26
2023-03-15T12:23:23.457Z,13.29
2023-03-15T12:26:00.301Z,13.34
2023-03-15T12:28:38.495Z,13.37
2023-03-15T12:31:14.865Z,13.37
2023-03-15T12:33:53.643Z,13.40
2023-03-15T12:36:36.786Z,13.42
2023-03-15T12:39:38.303Z,13.47
2023-03-15T12:42:31.196Z,13.49
2023-03-15T12:45:36.346Z,13.48
2023-03-15T12:48:33.844Z,13.49
2023-03-15T12:51:34.683Z,13.50
2023-03-15T12:54:14.342Z,13.52
2023-03-15T12:56:55.193Z,13.51
2023-03-15T12:59:41.144Z,13.53
2023-03-15T13:02:44.132Z,13.52
2023-03-15T13:05:30.893Z,13.54
2023-03-15T13:08:18.203Z,13.56
2023-03-15T13:11:11.329Z,13.61
2023-03-15T13:14:10.409Z,13.71
2023-03-15T13:16:50.828Z,13.78
2023-03-15T13:19:28.065Z,13.85
2023-03-15T13:22:11.136Z,13.90
2023-03-15T13:24:54.152Z,13.96
2023-03-15T13:27:45.146Z,14.04
2023-03-15T13:30:39.209Z,14.10
2023-03-15T13:33:22.479Z,14.17
2023-03-15T13:36:02.353Z,14.25
2023-03-15T13:38:40.952Z,14.31
2023-03-15T13:41:23.437Z,14.37
2023-03-15T13:43:59.727Z,14.43
2023-03-15T13:46:34.809Z,14.46
2023-03-15T13:49:09.501Z,14.49
2023-03-15T13:51:43.732Z,14.53
2023-03-15T13:54:21.853Z,14.57
2023-03-15T13:57:03.574Z,14.58
2023-03-15T13:59:43.313Z,14.59
2023-03-15T14:02:21.239Z,14.59
2023-03-15T14:05:01.378Z,14.69
2023-03-15T14:07:40.237Z,14.75
2023-03-15T14:10:27.408Z,14.82
2023-03-15T14:13:19.229Z,14.90
2023-03-15T14:15:57.356Z,14.98
2023-03-15T14:18:34.923Z,15.03
2023-03-15T14:21:14.981Z,15.08
2023-03-15T14:23:51.392Z,15.11
2023-03-15T14:26:30.785Z,15.13
2023-03-15T14:29:17.286Z,15.13
2023-03-15T14:31:53.093Z,15.13
2023-03-15T14:34:33.928Z,15.14
2023-03-15T14:37:29.453Z,15.15
2023-03-15T14:40:17.382Z,15.15
2023-03-15T14:42:52.606Z,15.15
2023-03-15T14:45:27.628Z,15.16
2023-03-15T14:48:05.904Z,15.16
2023-03-15T14:50:42.228Z,15.19
2023-03-15T14:53:21.558Z,15.21
2023-03-15T14:55:55.480Z,15.23
2023-03-15T14:58:29.348Z,15.23
2023-03-15T15:01:04.497Z,15.23
2023-03-15T15:03:42.638Z,15.21
2023-03-15T15:06:18.013Z,15.18
2023-03-15T15:09:00.331Z,15.17
2023-03-15T15:11:32.709Z,15.13
2023-03-15T15:14:12.247Z,15.07
2023-03-15T15:16:47.274Z,15.02
2023-03-15T15:19:21.303Z,14.98
2023-03-15T15:21:55.006Z,14.93
2023-03-15T15:24:30.759Z,14.87
2023-03-15T15:27:05.903Z,14.83
2023-03-15T15:29:41.005Z,14.81
2023-03-15T15:32:15.015Z,14.77
2023-03-15T15:34:48.626Z,14.72
2023-03-15T15:37:24.952Z,14.67
2023-03-15T15:39:59.502Z,14.61
2023-03-15T15:42:33.719Z,14.56
2023-03-15T15:45:13.726Z,14.52
2023-03-15T15:47:47.268Z,14.47
2023-03-15T15:50:23.550Z,14.41
2023-03-15T15:52:58.221Z,14.36
2023-03-15T15:55:34.148Z,14.29
2023-03-15T15:58:09.782Z,14.22
2023-03-15T16:00:45.917Z,14.17
2023-03-15T16:03:19.720Z,14.13
2023-03-15T16:05:53.526Z,14.07
2023-03-15T16:08:28.626Z,14.02
2023-03-15T16:11:02.872Z,13.97
2023-03-15T16:13:37.075Z,13.90
2023-03-15T16:16:16.284Z,13.84
2023-03-15T16:18:51.629Z,13.77
2023-03-15T16:21:33.695Z,13.70
2023-03-15T16:24:12.853Z,13.64
2023-03-15T16:26:48.305Z,13.56
2023-03-15T16:29:27.446Z,13.50
2023-03-15T16:32:13.790Z,13.42
2023-03-15T16:34:52.396Z,13.32
2023-03-15T16:37:30.696Z,13.24
2023-03-15T16:40:10.527Z,13.14
2023-03-15T16:42:45.876Z,13.07
2023-03-15T16:45:21.548Z,12.98
2023-03-15T16:47:56.715Z,12.94
2023-03-15T16:50:30.589Z,12.89
2023-03-15T16:53:08.233Z,12.82
2023-03-15T16:55:44.607Z,12.75
2023-03-15T16:58:22.683Z,12.67
2023-03-15T17:00:56.738Z,12.64
2023-03-15T17:03:31.480Z,12.60
2023-03-15T17:06:05.939Z,12.54
2023-03-15T17:08:40.348Z,12.46
2023-03-15T17:11:14.409Z,12.41
2023-03-15T17:13:48.435Z,12.36
2023-03-15T17:16:22.595Z,12.28
2023-03-15T17:18:56.645Z,12.23
2023-03-15T17:21:33.987Z,12.16
2023-03-15T17:24:08.440Z,12.09
2023-03-15T17:26:43.671Z,12.05
2023-03-15T17:29:18.899Z,11.97
2023-03-15T17:31:52.545Z,11.93
2023-03-15T17:34:26.931Z,11.88
2023-03-15T17:37:00.646Z,11.85
2023-03-15T17:39:34.857Z,11.81
2023-03-15T17:42:11.529Z,11.75
2023-03-15T17:44:45.618Z,11.67
2023-03-15T17:47:19.387Z,11.63
2023-03-15T17:49:53.465Z,11.56
2023-03-15T17:52:28.046Z,11.50
2023-03-15T17:55:01.982Z,11.46
2023-03-15T17:57:38.454Z,11.41
2023-03-15T18:00:19.598Z,11.37
2023-03-15T18:02:56.238Z,11.32
2023-03-15T18:05:33.298Z,11.29
2023-03-15T18:08:11.902Z,11.24
2023-03-15T18:10:47.704Z,11.20
2023-03-15T18:13:23.594Z,11.15
2023-03-15T18:15:57.594Z,11.12
2023-03-15T18:18:31.430Z,11.08
2023-03-15T18:21:08.746Z,11.05
2023-03-15T18:23:43.240Z,11.00
2023-03-15T18:26:20.671Z,10.96
2023-03-15T18:28:56.636Z,10.91
2023-03-15T18:31:30.987Z,10.89
2023-03-15T18:34:07.132Z,10.86
2023-03-15T18:36:41.114Z,10.83
2023-03-15T18:39:14.950Z,10.78
2023-03-15T18:41:48.963Z,10.73
2023-03-15T18:44:22.807Z,10.69
2023-03-15T18:46:56.655Z,10.68
2023-03-15T18:49:30.427Z,10.64
2023-03-15T18:52:07.096Z,10.61
2023-03-15T18:54:41.136Z,10.55
2023-03-15T18:57:14.738Z,10.50
2023-03-15T18:59:51.089Z,10.45
2023-03-15T19:02:25.405Z,10.43
2023-03-15T19:05:02.498Z,10.40
2023-03-15T19:07:37.857Z,10.37
2023-03-15T19:10:16.189Z,10.31
2023-03-15T19:12:52.445Z,10.27
2023-03-15T19:15:26.717Z,10.25
2023-03-15T19:18:02.538Z,10.21
2023-03-15T19:20:38.011Z,10.17
2023-03-15T19:23:11.746Z,10.11
2023-03-15T19:25:47.294Z,10.08
2023-03-15T19:28:23.881Z,10.00
2023-03-15T19:30:57.476Z,9.95
2023-03-15T19:33:30.867Z,9.90
2023-03-15T19:36:05.797Z,9.88
2023-03-15T19:38:39.898Z,9.83
2023-03-15T19:41:13.771Z,9.80
2023-03-15T19:43:47.820Z,9.75
2023-03-15T19:46:22.394Z,9.71
2023-03-15T19:48:56.965Z,9.66
2023-03-15T19:51:30.972Z,9.63
2023-03-15T19:54:04.657Z,9.58
2023-03-15T19:56:38.785Z,9.54
2023-03-15T19:59:12.716Z,9.50
2023-03-15T20:01:46.614Z,9.46
2023-03-15T20:04:21.133Z,9.41
2023-03-15T20:06:56.331Z,9.36
2023-03-15T20:09:30.750Z,9.31
2023-03-15T20:12:04.537Z,9.27
2023-03-15T20:14:38.692Z,9.24
2023-03-15T20:17:15.367Z,9.19
2023-03-15T20:19:49.989Z,9.12
2023-03-15T20:22:24.206Z,9.06
2023-03-15T20:24:59.125Z,9.01
2023-03-15T20:27:34.630Z,8.95
2023-03-15T20:30:11.205Z,8.89
2023-03-15T20:32:45.051Z,8.85
2023-03-15T20:35:19.985Z,8.83
2023-03-15T20:37:54.612Z,8.80
2023-03-15T20:40:28.206Z,8.75
2023-03-15T20:43:02.897Z,8.73
2023-03-15T20:45:37.126Z,8.69
2023-03-15T20:48:10.498Z,8.64
2023-03-15T20:50:44.316Z,8.59
2023-03-15T20:53:18.299Z,8.54
2023-03-15T20:55:52.305Z,8.50
2023-03-15T20:58:27.113Z,8.49
2023-03-15T21:01:08.059Z,8.45
2023-03-15T21:03:41.832Z,8.40
2023-03-15T21:06:16.532Z,8.35
2023-03-15T21:08:50.559Z,8.32
2023-03-15T21:11:24.778Z,8.28
2023-03-15T21:13:58.714Z,8.28
2023-03-15T21:16:33.411Z,8.24
2023-03-15T21:19:07.399Z,8.19
2023-03-15T21:21:43.491Z,8.13
2023-03-15T21:24:18.086Z,8.06
2023-03-15T21:26:54.932Z,7.99
2023-03-15T21:29:28.968Z,7.91
2023-03-15T21:32:04.674Z,7.87
2023-03-15T21:34:39.042Z,7.83
2023-03-15T21:37:13.179Z,7.78
2023-03-15T21:39:46.989Z,7.75
2023-03-15T21:42:21.000Z,7.70
2023-03-15T21:44:55.204Z,7.68
2023-03-15T21:47:30.038Z,7.66
2023-03-15T21:50:03.677Z,7.61
2023-03-15T21:52:37.738Z,7.61
2023-03-15T21:55:15.792Z,7.57
2023-03-15T21:57:50.020Z,7.52
2023-03-15T22:00:26.778Z,7.51
2023-03-15T22:02:59.874Z,7.48
2023-03-15T22:05:34.936Z,7.45
2023-03-15T22:08:10.367Z,7.43
2023-03-15T22:10:43.974Z,7.40
2023-03-15T22:13:17.908Z,7.40
2023-03-15T22:15:53.558Z,7.39
2023-03-15T22:18:29.014Z,7.38
2023-03-15T22:21:03.621Z,7.36
2023-03-15T22:23:37.324Z,7.32
2023-03-15T22:26:11.174Z,7.32
2023-03-15T22:28:45.374Z,7.30
2023-03-15T22:31:19.691Z,7.29
2023-03-15T22:33:53.200Z,7.27
